Time;durP1;ratioP1;P1;durP2;ratioP2;P2;SDS_P1;SDS_P2;PMS_P1;PMS_P2;Temp;Humidity;BMP_temperature;BMP_pressure;BME280_temperature;BME280_humidity;BME280_pressure;Samples;Min_cycle;Max_cycle;Signal;HPM_P1;HPM_P2
2024/02/16 00:00:44;;;;;;;13.05;4.10;;;;;;;10.42;100.00;100830.56;5085008;28;20040;-75
2024/02/16 00:03:10;;;;;;;13.57;4.10;;;;;;;10.42;100.00;100833.19;5085115;28;20141;-87
2024/02/16 00:05:36;;;;;;;14.00;4.20;;;;;;;10.42;100.00;100834.97;5083896;28;20549;-70
2024/02/16 00:08:02;;;;;;;13.52;4.10;;;;;;;10.41;100.00;100825.25;5086139;28;20020;-70
2024/02/16 00:10:28;;;;;;;13.50;4.10;;;;;;;10.37;100.00;100827.03;5083579;28;20036;-72
2024/02/16 00:12:54;;;;;;;16.73;4.10;;;;;;;10.36;100.00;100825.25;5087307;28;20043;-75
2024/02/16 00:15:19;;;;;;;13.43;4.18;;;;;;;10.37;100.00;100821.72;5082924;28;20033;-82
2024/02/16 00:17:45;;;;;;;14.55;4.00;;;;;;;10.37;100.00;100815.53;5085185;28;20025;-84
2024/02/16 00:20:12;;;;;;;11.15;3.83;;;;;;;10.38;100.00;100820.88;5084814;28;20061;-80
2024/02/16 00:22:38;;;;;;;12.15;4.03;;;;;;;10.36;100.00;100816.44;5083946;28;20054;-71
2024/02/16 00:25:03;;;;;;;14.25;4.18;;;;;;;10.35;100.00;100809.38;5086093;28;20425;-80
2024/02/16 00:27:29;;;;;;;13.90;4.10;;;;;;;10.34;100.00;100815.53;5082768;28;20043;-87
2024/02/16 00:29:54;;;;;;;14.80;4.10;;;;;;;10.32;100.00;100822.56;5083421;28;20025;-87
2024/02/16 00:32:20;;;;;;;14.38;4.07;;;;;;;10.30;100.00;100825.19;5086422;28;20493;-81
2024/02/16 00:34:45;;;;;;;12.93;3.88;;;;;;;10.29;100.00;100820.78;5083687;28;20538;-70
2024/02/16 00:37:11;;;;;;;12.45;3.80;;;;;;;10.27;100.00;100828.69;5083907;28;20116;-70
2024/02/16 00:39:40;;;;;;;15.90;4.10;;;;;;;10.22;100.00;100829.53;5084694;28;20039;-69
2024/02/16 00:42:06;;;;;;;14.15;3.92;;;;;;;10.21;100.00;100825.16;5082429;28;20367;-69
2024/02/16 00:44:31;;;;;;;14.38;3.97;;;;;;;10.20;100.00;100821.59;5082588;28;20044;-80
2024/02/16 00:46:58;;;;;;;14.85;4.05;;;;;;;10.18;100.00;100815.44;5085877;28;20425;-83
2024/02/16 00:49:23;;;;;;;15.70;4.10;;;;;;;10.18;100.00;100815.44;5081722;28;20043;-80
2024/02/16 00:51:50;;;;;;;13.95;4.00;;;;;;;10.17;100.00;100815.44;5081618;28;20040;-72
2024/02/16 00:54:16;;;;;;;15.82;4.10;;;;;;;10.16;100.00;100811.00;5083359;28;20032;-80
2024/02/16 00:56:41;;;;;;;13.30;3.97;;;;;;;10.15;100.00;100804.88;5065591;28;20040;-69
2024/02/16 00:59:08;;;;;;;12.05;3.90;;;;;;;10.14;100.00;100800.44;5084673;28;20032;-71
2024/02/16 01:01:35;;;;;;;12.05;3.92;;;;;;;10.12;100.00;100797.78;5082651;28;20032;-70
2024/02/16 01:04:01;;;;;;;13.70;3.90;;;;;;;10.07;100.00;100807.44;5085872;28;20059;-70
2024/02/16 01:06:26;;;;;;;14.55;4.10;;;;;;;10.07;100.00;100807.44;5085390;28;20461;-77
2024/02/16 01:08:51;;;;;;;13.52;3.90;;;;;;;10.06;100.00;100805.69;5082038;28;20036;-74
2024/02/16 01:11:17;;;;;;;15.40;4.00;;;;;;;10.03;100.00;100804.78;5083946;28;20111;-81
2024/02/16 01:13:43;;;;;;;12.45;3.70;;;;;;;10.02;100.00;100809.19;5082997;28;20027;-80
2024/02/16 01:16:09;;;;;;;14.48;4.00;;;;;;;9.99;100.00;100803.88;5083004;28;20158;-71
2024/02/16 01:18:36;;;;;;;13.30;3.85;;;;;;;9.98;100.00;100796.81;5084094;28;20035;-72
2024/02/16 01:21:03;;;;;;;15.30;4.00;;;;;;;9.94;100.00;100781.84;5082200;28;20025;-70
2024/02/16 01:23:28;;;;;;;13.00;3.80;;;;;;;9.95;100.00;100789.75;5085088;28;20024;-70
2024/02/16 01:25:54;;;;;;;13.65;3.90;;;;;;;9.91;100.00;100792.38;5081631;28;20052;-70
2024/02/16 01:28:19;;;;;;;12.32;3.67;;;;;;;9.88;100.00;100787.09;5084295;28;20150;-70
2024/02/16 01:30:44;;;;;;;12.98;3.78;;;;;;;9.86;100.00;100787.09;5082686;28;20478;-76
2024/02/16 01:33:10;;;;;;;11.93;3.60;;;;;;;9.85;100.00;100785.31;5064605;28;20364;-78
2024/02/16 01:35:36;;;;;;;13.13;4.00;;;;;;;9.91;100.00;100784.47;5084151;28;20095;-71
2024/02/16 01:38:01;;;;;;;12.40;3.78;;;;;;;9.91;100.00;100773.91;5081230;28;20113;-70
2024/02/16 01:40:27;;;;;;;13.77;3.90;;;;;;;9.94;100.00;100773.91;5084456;28;20097;-70
2024/02/16 01:42:53;;;;;;;12.43;3.70;;;;;;;9.98;100.00;100775.69;5081459;28;20044;-70
2024/02/16 01:45:20;;;;;;;13.00;3.90;;;;;;;10.01;100.00;100778.34;5083601;28;20038;-70
2024/02/16 01:47:49;;;;;;;12.73;3.80;;;;;;;9.98;100.00;100770.41;5082464;28;20115;-69
2024/02/16 01:50:16;;;;;;;14.90;3.90;;;;;;;10.02;100.00;100766.03;5083239;28;20035;-70
2024/02/16 01:52:43;;;;;;;13.07;3.75;;;;;;;9.99;100.00;100773.94;5065119;28;20111;-74
2024/02/16 01:55:10;;;;;;;13.32;4.00;;;;;;;9.95;100.00;100773.06;5082410;28;20028;-70
2024/02/16 01:57:35;;;;;;;12.27;3.83;;;;;;;9.96;100.00;100772.19;5084216;28;20056;-87
2024/02/16 02:00:01;;;;;;;14.13;3.90;;;;;;;9.94;100.00;100773.91;5081147;28;20067;-84
2024/02/16 02:02:27;;;;;;;15.07;4.10;;;;;;;9.98;100.00;100782.75;5081465;28;20486;-88
2024/02/16 02:04:53;;;;;;;12.50;3.80;;;;;;;9.93;100.00;100775.69;5084709;28;20494;-87
2024/02/16 02:07:18;;;;;;;13.90;4.00;;;;;;;9.94;100.00;100769.50;5082614;28;20035;-88
2024/02/16 02:09:44;;;;;;;14.43;4.00;;;;;;;9.90;100.00;100770.38;5083427;28;20028;-80
2024/02/16 02:12:09;;;;;;;13.57;3.80;;;;;;;9.90;100.00;100762.47;5083480;28;20055;-72
2024/02/16 02:14:37;;;;;;;14.23;3.92;;;;;;;9.94;100.00;100764.22;5081493;28;20547;-73
2024/02/16 02:17:03;;;;;;;11.65;3.90;;;;;;;9.97;100.00;100766.00;5085467;28;20077;-75
2024/02/16 02:19:29;;;;;;;13.45;3.85;;;;;;;10.02;100.00;100766.94;5081918;28;20032;-70
2024/02/16 02:21:55;;;;;;;13.35;3.80;;;;;;;10.03;100.00;100757.22;5084961;28;20539;-87
2024/02/16 02:24:21;;;;;;;12.63;3.90;;;;;;;10.05;100.00;100761.66;5085006;28;20033;-80
2024/02/16 02:26:46;;;;;;;12.32;3.85;;;;;;;10.06;100.00;100752.88;5087756;28;20078;-78
2024/02/16 02:29:12;;;;;;;12.20;3.70;;;;;;;10.06;100.00;100754.59;5087363;28;20040;-78
2024/02/16 02:31:37;;;;;;;12.93;3.78;;;;;;;10.04;100.00;100751.09;5086560;28;20024;-80
2024/02/16 02:34:04;;;;;;;13.65;4.10;;;;;;;10.02;100.00;100745.81;5085160;28;20029;-87
2024/02/16 02:36:30;;;;;;;11.77;3.83;;;;;;;10.05;100.00;100758.16;5063411;28;20076;-86
2024/02/16 02:38:56;;;;;;;12.98;3.90;;;;;;;10.08;100.00;100756.38;5085433;28;20383;-87
2024/02/16 02:41:21;;;;;;;14.07;4.05;;;;;;;10.11;100.00;100751.13;5088235;28;20154;-87
2024/02/16 02:43:47;;;;;;;12.38;4.10;;;;;;;10.12;100.00;100752.03;5086289;28;20048;-87
2024/02/16 02:46:16;;;;;;;14.27;4.00;;;;;;;10.10;100.00;100744.06;5086671;28;20056;-85
2024/02/16 02:48:43;;;;;;;13.77;4.28;;;;;;;10.11;100.00;100750.25;5086656;28;20123;-72
2024/02/16 02:51:09;;;;;;;12.20;3.90;;;;;;;10.08;100.00;100745.81;5085607;28;20025;-72
2024/02/16 02:53:34;;;;;;;13.23;4.22;;;;;;;10.08;100.00;100745.81;5087602;28;20539;-73
2024/02/16 02:56:00;;;;;;;12.95;4.00;;;;;;;10.05;100.00;100745.81;5084273;28;20119;-74
2024/02/16 02:58:25;;;;;;;12.00;3.88;;;;;;;10.02;100.00;100735.25;5087959;28;20047;-71
2024/02/16 03:00:50;;;;;;;14.70;3.80;;;;;;;10.03;100.00;100734.38;5067216;28;20043;-70
2024/02/16 03:03:16;;;;;;;13.48;3.90;;;;;;;10.00;100.00;100733.47;5068239;28;20032;-70
2024/02/16 03:05:42;;;;;;;11.45;3.60;;;;;;;9.97;100.00;100721.13;5086079;28;20123;-70
2024/02/16 03:08:07;;;;;;;13.70;3.90;;;;;;;10.01;100.00;100720.25;5085170;28;20024;-70
2024/02/16 03:10:34;;;;;;;13.57;3.88;;;;;;;10.01;100.00;100722.03;5087073;28;20088;-70
2024/02/16 03:13:01;;;;;;;12.45;4.00;;;;;;;9.95;100.00;100722.88;5083930;28;20074;-71
2024/02/16 03:15:26;;;;;;;11.25;3.67;;;;;;;9.93;100.00;100727.25;5083917;28;20478;-76
2024/02/16 03:17:52;;;;;;;9.50;3.63;;;;;;;9.99;100.00;100727.31;5086539;28;20035;-73
2024/02/16 03:20:17;;;;;;;10.90;3.80;;;;;;;10.02;100.00;100726.41;5085219;28;20441;-70
2024/02/16 03:22:43;;;;;;;13.45;3.83;;;;;;;10.01;100.00;100714.09;5085476;28;20055;-71
2024/02/16 03:25:09;;;;;;;12.95;3.83;;;;;;;9.99;100.00;100722.03;5086076;28;20034;-72
2024/02/16 03:27:34;;;;;;;12.40;4.00;;;;;;;10.02;100.00;100707.94;5084237;28;20029;-70
2024/02/16 03:30:00;;;;;;;12.38;3.83;;;;;;;10.03;100.00;100707.97;5086986;28;20030;-70
2024/02/16 03:32:26;;;;;;;12.95;4.07;;;;;;;10.05;100.00;100715.88;5083056;28;20020;-71
2024/02/16 03:34:51;;;;;;;13.15;3.95;;;;;;;10.10;100.00;100717.66;5057635;28;20071;-73
2024/02/16 03:37:16;;;;;;;11.50;3.67;;;;;;;10.12;100.00;100715.03;5085722;28;20021;-73
2024/02/16 03:39:43;;;;;;;11.68;3.65;;;;;;;10.10;100.00;100722.06;5085703;28;20024;-70
2024/02/16 03:42:09;;;;;;;12.88;3.80;;;;;;;10.11;100.00;100715.91;5085779;28;20024;-87
2024/02/16 03:44:34;;;;;;;12.68;3.83;;;;;;;10.17;100.00;100728.25;5087789;28;20055;-87
2024/02/16 03:47:00;;;;;;;10.20;3.70;;;;;;;10.18;100.00;100719.44;5067131;28;20113;-86
2024/02/16 03:49:27;;;;;;;12.90;4.03;;;;;;;10.23;100.00;100720.34;5088390;28;20032;-88
2024/02/16 03:51:53;;;;;;;13.63;3.88;;;;;;;10.27;100.00;100722.13;5089827;28;20021;-83
2024/02/16 03:54:18;;;;;;;11.85;3.90;;;;;;;10.29;100.00;100723.00;5087277;28;20040;-81
2024/02/16 03:56:45;;;;;;;14.77;4.07;;;;;;;10.33;100.00;100719.50;5066070;28;20463;-88
2024/02/16 03:59:10;;;;;;;13.35;3.92;;;;;;;10.29;100.00;100713.34;5068382;28;20436;-86
2024/02/16 04:01:36;;;;;;;14.02;4.00;;;;;;;10.33;100.00;100722.16;5085096;28;20090;-86
2024/02/16 04:04:03;;;;;;;12.85;3.90;;;;;;;10.32;100.00;100711.56;5070980;28;20085;-87
2024/02/16 04:06:28;;;;;;;12.52;4.10;;;;;;;10.28;100.00;100718.59;5084396;28;20029;-87
2024/02/16 04:08:54;;;;;;;11.75;3.90;;;;;;;10.24;100.00;100722.13;5085926;28;20028;-70
2024/02/16 04:11:19;;;;;;;13.35;4.10;;;;;;;10.25;100.00;100716.84;5084003;28;20047;-70
2024/02/16 04:13:44;;;;;;;15.25;4.30;;;;;;;10.28;100.00;100721.22;5084669;28;20033;-74
2024/02/16 04:16:10;;;;;;;13.35;4.20;;;;;;;10.31;100.00;100718.63;5085366;28;20123;-73
2024/02/16 04:18:35;;;;;;;13.68;4.10;;;;;;;10.34;100.00;100709.84;5083169;28;20031;-73
2024/02/16 04:21:01;;;;;;;12.18;3.95;;;;;;;10.40;100.00;100723.97;5086386;28;20051;-71
2024/02/16 04:23:26;;;;;;;13.57;3.95;;;;;;;10.45;100.00;100727.50;5064752;28;20075;-70
2024/02/16 04:25:52;;;;;;;12.65;4.10;;;;;;;10.54;100.00;100728.41;5085907;28;20382;-71
2024/02/16 04:28:18;;;;;;;13.57;4.20;;;;;;;10.62;100.00;100724.91;5084013;28;20540;-81
2024/02/16 04:30:44;;;;;;;12.05;4.00;;;;;;;10.62;100.00;100727.53;5066390;28;20047;-73
2024/02/16 04:33:09;;;;;;;13.48;4.00;;;;;;;10.63;100.00;100729.31;5084871;28;20409;-79
2024/02/16 04:35:34;;;;;;;14.82;4.38;;;;;;;10.70;100.00;100729.31;5082858;28;20507;-77
2024/02/16 04:38:00;;;;;;;13.38;4.25;;;;;;;10.70;100.00;100719.63;5085914;28;20036;-73
2024/02/16 04:40:26;;;;;;;13.98;4.20;;;;;;;10.73;100.00;100730.22;5082446;28;20032;-69
2024/02/16 04:42:51;;;;;;;13.50;4.10;;;;;;;10.82;100.00;100730.25;5084702;28;20131;-71
2024/02/16 04:45:17;;;;;;;14.80;3.97;;;;;;;10.94;100.00;100729.38;5083783;28;20135;-70
2024/02/16 04:47:43;;;;;;;13.38;3.90;;;;;;;10.98;100.00;100730.28;5083504;28;20033;-70
2024/02/16 04:50:11;;;;;;;13.30;4.05;;;;;;;10.97;100.00;100723.22;5085121;28;20028;-70
2024/02/16 04:52:39;;;;;;;12.30;3.80;;;;;;;10.97;100.00;100733.78;5064764;28;20425;-69
2024/02/16 04:55:05;;;;;;;12.63;3.90;;;;;;;11.00;100.00;100736.44;5085051;28;20486;-74
2024/02/16 04:57:33;;;;;;;14.23;4.10;;;;;;;11.00;100.00;100731.13;5081969;28;20029;-70
2024/02/16 04:59:58;;;;;;;14.68;4.10;;;;;;;11.01;100.00;100727.63;5082036;28;20078;-71
2024/02/16 05:02:24;;;;;;;15.55;4.10;;;;;;;11.07;100.00;100730.25;5084752;28;20032;-73
2024/02/16 05:04:49;;;;;;;12.98;4.10;;;;;;;11.11;100.00;100732.03;5083086;28;20031;-70
2024/02/16 05:07:15;;;;;;;15.57;4.20;;;;;;;11.12;100.00;100728.47;5084229;28;20031;-70
2024/02/16 05:09:41;;;;;;;15.00;4.20;;;;;;;11.19;100.00;100728.50;5084205;28;20020;-70
2024/02/16 05:12:08;;;;;;;12.70;3.90;;;;;;;11.26;100.00;100724.97;5064530;28;20029;-72
2024/02/16 05:14:34;;;;;;;14.77;4.07;;;;;;;11.28;100.00;100723.19;5085167;28;20021;-84
2024/02/16 05:16:59;;;;;;;13.65;4.40;;;;;;;11.25;100.00;100726.72;5063715;28;20452;-77
2024/02/16 05:19:24;;;;;;;14.60;4.00;;;;;;;11.26;100.00;100733.78;5084544;28;20478;-71
2024/02/16 05:21:50;;;;;;;13.20;4.00;;;;;;;11.33;100.00;100727.63;5082647;28;20458;-70
2024/02/16 05:24:15;;;;;;;13.43;3.95;;;;;;;11.36;100.00;100721.44;5083608;28;20573;-70
2024/02/16 05:26:40;;;;;;;13.55;3.90;;;;;;;11.41;100.00;100724.09;5081724;28;20451;-87
2024/02/16 05:29:06;;;;;;;13.60;4.18;;;;;;;11.38;100.00;100724.97;5085721;28;20375;-83
2024/02/16 05:31:31;;;;;;;12.35;3.85;;;;;;;11.43;100.00;100727.59;5083396;28;20033;-87
2024/02/16 05:33:57;;;;;;;14.02;4.00;;;;;;;11.49;100.00;100722.31;5086156;28;20113;-87
2024/02/16 05:36:27;;;;;;;12.38;3.88;;;;;;;11.44;100.00;100730.25;5083618;28;20028;-87
2024/02/16 05:38:55;;;;;;;12.57;3.92;;;;;;;11.49;100.00;100728.47;5080961;28;20177;-79
2024/02/16 05:41:21;;;;;;;14.02;4.13;;;;;;;11.54;100.00;100735.53;5082243;28;20024;-70
2024/02/16 05:43:46;;;;;;;14.52;4.40;;;;;;;11.49;100.00;100728.47;5082895;28;20135;-70
2024/02/16 05:46:15;;;;;;;13.32;4.15;;;;;;;11.48;100.00;100726.72;5083636;28;20027;-70
2024/02/16 05:48:42;;;;;;;13.02;4.00;;;;;;;11.43;100.00;100736.44;5082129;28;20063;-70
2024/02/16 05:51:08;;;;;;;14.57;4.00;;;;;;;11.40;100.00;100733.81;5049757;28;20506;-70
2024/02/16 05:53:34;;;;;;;15.73;4.10;;;;;;;11.33;100.00;100732.03;5084359;28;20066;-82
2024/02/16 05:55:59;;;;;;;13.40;4.07;;;;;;;11.30;100.00;100746.16;5063147;28;20056;-74
2024/02/16 05:58:25;;;;;;;14.40;3.95;;;;;;;11.35;100.00;100740.84;5083441;28;20078;-74
2024/02/16 06:00:51;;;;;;;14.80;4.18;;;;;;;11.37;100.00;100743.50;5081864;28;20390;-72
2024/02/16 06:03:16;;;;;;;12.55;3.75;;;;;;;11.44;100.00;100753.19;5082729;28;20032;-70
2024/02/16 06:05:44;;;;;;;14.95;4.38;;;;;;;11.47;100.00;100761.13;5082946;28;20032;-70
2024/02/16 06:08:10;;;;;;;14.15;4.10;;;;;;;11.50;100.00;100762.03;5081724;28;20047;-72
2024/02/16 06:10:35;;;;;;;12.13;3.97;;;;;;;11.48;100.00;100769.06;5084246;28;20036;-70
2024/02/16 06:13:01;;;;;;;17.73;4.85;;;;;;;11.51;100.00;100763.75;5080726;28;20032;-72
2024/02/16 06:15:26;;;;;;;14.52;4.20;;;;;;;11.48;100.00;100766.41;5083877;28;20039;-70
2024/02/16 06:17:52;;;;;;;15.85;4.22;;;;;;;11.48;100.00;100769.06;5081698;28;20111;-75
2024/02/16 06:20:18;;;;;;;15.23;4.30;;;;;;;11.58;100.00;100764.66;5082575;28;20425;-70
2024/02/16 06:22:43;;;;;;;14.07;4.10;;;;;;;11.62;100.00;100770.81;5082978;28;20077;-70
2024/02/16 06:25:09;;;;;;;14.07;4.30;;;;;;;11.59;100.00;100776.13;5081516;28;20115;-70
2024/02/16 06:27:35;;;;;;;16.33;4.53;;;;;;;11.66;100.00;100773.47;5084026;28;20025;-70
2024/02/16 06:30:01;;;;;;;16.08;4.10;;;;;;;11.75;100.00;100771.69;5081143;28;20032;-70
2024/02/16 06:32:28;;;;;;;14.45;4.18;;;;;;;11.80;100.00;100780.50;5083730;28;20568;-70
2024/02/16 06:34:53;;;;;;;15.02;4.15;;;;;;;11.85;100.00;100769.03;5081171;28;20103;-77
2024/02/16 06:37:19;;;;;;;16.33;4.55;;;;;;;11.84;100.00;100774.34;5082778;28;20032;-74
2024/02/16 06:39:44;;;;;;;13.63;4.20;;;;;;;11.80;100.00;100778.72;5082378;28;20036;-70
2024/02/16 06:42:12;;;;;;;15.70;4.10;;;;;;;11.83;100.00;100785.81;5081533;28;20037;-70
2024/02/16 06:44:38;;;;;;;15.18;4.20;;;;;;;11.92;100.00;100798.16;5083566;28;20515;-71
2024/02/16 06:47:04;;;;;;;15.18;4.10;;;;;;;11.95;100.00;100795.53;5080506;28;20029;-72
2024/02/16 06:49:29;;;;;;;15.63;4.50;;;;;;;11.89;100.00;100796.38;5084441;28;20540;-69
2024/02/16 06:51:55;;;;;;;15.73;4.30;;;;;;;11.97;100.00;100796.38;5083716;28;20028;-80
2024/02/16 06:54:20;;;;;;;16.15;4.35;;;;;;;11.96;100.00;100807.88;5084168;28;20509;-75
2024/02/16 06:56:46;;;;;;;15.45;4.30;;;;;;;11.95;100.00;100811.41;5083184;28;20031;-78
2024/02/16 06:59:11;;;;;;;15.00;4.07;;;;;;;11.93;100.00;100811.41;5081657;28;20020;-79
2024/02/16 07:01:36;;;;;;;16.23;4.18;;;;;;;11.94;100.00;100812.28;5083606;28;20067;-76
2024/02/16 07:04:02;;;;;;;18.25;4.40;;;;;;;11.98;100.00;100827.31;5080364;28;20033;-71
2024/02/16 07:06:27;;;;;;;17.17;4.40;;;;;;;11.96;100.00;100824.66;5083717;28;20024;-70
2024/02/16 07:08:54;;;;;;;15.73;4.30;;;;;;;12.00;100.00;100826.41;5081229;28;20028;-70
2024/02/16 07:11:20;;;;;;;16.67;4.78;;;;;;;12.04;100.00;100832.59;5084763;28;20033;-71
2024/02/16 07:13:46;;;;;;;16.55;4.65;;;;;;;12.02;100.00;100829.94;5085848;28;20469;-70
2024/02/16 07:16:11;;;;;;;17.98;5.60;;;;;;;11.99;100.00;100829.06;5066736;28;20025;-79
2024/02/16 07:18:37;;;;;;;19.63;5.68;;;;;;;12.01;100.00;100833.50;5087063;28;20032;-79
2024/02/16 07:21:02;;;;;;;16.27;4.65;;;;;;;12.00;100.00;100836.16;5083689;28;20040;-85
2024/02/16 07:23:28;;;;;;;16.45;4.50;;;;;;;12.01;100.00;100849.38;5069029;28;20127;-85
2024/02/16 07:25:56;;;;;;;14.73;4.38;;;;;;;12.04;100.00;100848.47;5066266;28;20036;-85
2024/02/16 07:28:24;;;;;;;15.98;4.68;;;;;;;12.02;100.00;100864.38;5085925;28;20032;-83
2024/02/16 07:30:53;;;;;;;13.65;4.25;;;;;;;12.02;100.00;100868.81;5084854;28;20028;-75
2024/02/16 07:33:19;;;;;;;16.35;4.85;;;;;;;12.02;100.00;100855.56;5085845;28;20482;-74
2024/02/16 07:35:44;;;;;;;17.65;4.68;;;;;;;12.03;100.00;100865.28;5085738;28;20016;-74
2024/02/16 07:38:10;;;;;;;15.40;4.47;;;;;;;12.06;100.00;100859.06;5084152;28;20034;-73
2024/02/16 07:40:35;;;;;;;16.15;4.90;;;;;;;12.06;100.00;100862.63;5086625;28;20039;-78
2024/02/16 07:43:02;;;;;;;15.80;4.50;;;;;;;12.15;100.00;100867.91;5083046;28;20151;-75
2024/02/16 07:45:28;;;;;;;15.20;4.38;;;;;;;12.15;100.00;100873.19;5086563;28;20035;-80
2024/02/16 07:47:53;;;;;;;13.93;4.38;;;;;;;12.15;100.00;100873.19;5084429;28;20665;-84
2024/02/16 07:50:22;;;;;;;16.67;4.70;;;;;;;12.09;100.00;100870.56;5085967;28;20068;-76
2024/02/16 07:52:48;;;;;;;15.30;4.75;;;;;;;12.04;100.00;100874.97;5067668;28;20024;-83
2024/02/16 07:55:14;;;;;;;16.60;4.60;;;;;;;12.02;100.00;100874.97;5078796;28;20020;-87
2024/02/16 07:57:39;;;;;;;15.32;4.50;;;;;;;12.03;100.00;100873.22;5086136;28;20024;-85
2024/02/16 08:00:06;;;;;;;17.40;4.68;;;;;;;11.89;100.00;100878.50;5084689;28;20395;-71
2024/02/16 08:02:32;;;;;;;16.75;4.82;;;;;;;11.75;100.00;100875.88;5084800;28;20021;-87
2024/02/16 08:04:59;;;;;;;17.13;4.70;;;;;;;11.62;100.00;100884.66;5086260;28;20036;-86
2024/02/16 08:07:27;;;;;;;15.45;4.43;;;;;;;11.78;100.00;100889.09;5083784;28;20032;-70
2024/02/16 08:09:53;;;;;;;14.73;4.45;;;;;;;11.85;100.00;100885.56;5086906;28;20032;-87
2024/02/16 08:12:18;;;;;;;17.17;4.60;;;;;;;11.86;100.00;100892.63;5083626;28;20153;-87
2024/02/16 08:14:44;;;;;;;15.88;4.80;;;;;;;11.71;100.00;100892.63;5069962;28;20077;-87
2024/02/16 08:17:11;;;;;;;17.38;5.10;;;;;;;11.43;100.00;100897.91;5086376;28;20040;-85
2024/02/16 08:19:37;;;;;;;17.63;5.03;;;;;;;11.19;100.00;100905.78;5084649;28;20589;-76
2024/02/16 08:22:04;;;;;;;18.15;5.68;;;;;;;10.96;100.00;100918.03;5084757;28;20051;-79
2024/02/16 08:24:32;;;;;;;16.77;5.00;;;;;;;10.94;100.00;100925.09;5085237;28;20086;-76
2024/02/16 08:26:58;;;;;;;17.75;5.15;;;;;;;10.82;100.00;100919.75;5083421;28;20119;-72
2024/02/16 08:29:23;;;;;;;17.00;5.40;;;;;;;10.77;100.00;100926.78;5085851;28;20405;-78
2024/02/16 08:31:52;;;;;;;17.20;5.60;;;;;;;10.72;100.00;100942.63;5082842;28;20029;-71
2024/02/16 08:34:17;;;;;;;18.00;5.40;;;;;;;10.79;100.00;100940.88;5082672;28;20032;-71
2024/02/16 08:36:49;;;;;;;17.05;5.55;;;;;;;10.84;100.00;100948.84;5067157;28;20031;-73
2024/02/16 08:39:16;;;;;;;18.25;5.90;;;;;;;10.82;100.00;100957.66;5082866;28;20067;-71
2024/02/16 08:41:41;;;;;;;19.33;5.80;;;;;;;10.91;100.00;100963.88;5066871;28;20028;-75
2024/02/16 08:44:10;;;;;;;16.70;5.60;;;;;;;10.98;100.00;100969.19;5083223;28;20056;-75
2024/02/16 08:46:36;;;;;;;17.67;5.75;;;;;;;11.18;100.00;100967.50;5084380;28;20106;-71
2024/02/16 08:49:02;;;;;;;18.05;5.63;;;;;;;11.32;100.00;100969.31;5065890;28;20099;-71
2024/02/16 08:51:28;;;;;;;17.02;5.22;;;;;;;11.52;100.00;100977.31;5082618;28;20032;-71
2024/02/16 08:53:53;;;;;;;19.77;5.50;;;;;;;11.62;100.00;100977.34;5085270;28;20022;-70
2024/02/16 08:56:19;;;;;;;20.00;6.00;;;;;;;11.73;100.00;100974.72;5082133;28;20048;-70
2024/02/16 08:58:44;;;;;;;18.58;5.60;;;;;;;11.82;100.00;100966.78;5084757;28;20047;-71
2024/02/16 09:01:09;;;;;;;18.40;5.40;;;;;;;11.96;100.00;100988.91;5064802;28;20032;-71
2024/02/16 09:03:38;;;;;;;16.27;5.30;;;;;;;12.11;100.00;100980.06;5065601;28;20036;-76
2024/02/16 09:06:04;;;;;;;17.02;5.78;;;;;;;12.18;100.00;100976.53;5083478;28;20032;-76
2024/02/16 09:08:34;;;;;;;20.20;5.60;;;;;;;12.29;100.00;100992.47;5082958;28;20090;-74
2024/02/16 09:11:00;;;;;;;18.05;5.53;;;;;;;12.39;100.00;100990.66;5084102;28;20028;-72
2024/02/16 09:13:25;;;;;;;16.90;5.47;;;;;;;12.44;100.00;100991.56;5082059;28;20368;-78
2024/02/16 09:15:51;;;;;;;17.23;5.47;;;;;;;12.52;100.00;100997.75;5085330;28;20060;-72
2024/02/16 09:18:17;;;;;;;17.77;5.43;;;;;;;12.60;100.00;100996.84;5081471;28;20067;-71
2024/02/16 09:20:43;;;;;;;18.23;5.45;;;;;;;12.68;100.00;101010.97;5084104;28;20044;-79
2024/02/16 09:23:09;;;;;;;18.27;5.50;;;;;;;12.76;100.00;101011.84;5083098;28;20020;-83
2024/02/16 09:25:34;;;;;;;17.15;5.50;;;;;;;12.83;100.00;101015.34;5055127;28;20029;-79
2024/02/16 09:28:00;;;;;;;17.00;5.30;;;;;;;12.89;100.00;101016.22;5083678;28;20024;-76
2024/02/16 09:30:25;;;;;;;18.13;5.53;;;;;;;12.93;100.00;101016.22;5082069;28;20462;-73
2024/02/16 09:32:50;;;;;;;18.40;5.63;;;;;;;12.93;100.00;101018.88;5084041;28;20028;-79
2024/02/16 09:35:16;;;;;;;20.88;5.80;;;;;;;12.92;100.00;101015.34;5081677;28;20025;-73
2024/02/16 09:37:42;;;;;;;18.25;6.00;;;;;;;12.93;100.00;101017.13;5083909;28;20517;-71
2024/02/16 09:40:10;;;;;;;16.95;5.50;;;;;;;12.91;100.00;101024.19;5082580;28;20036;-74
2024/02/16 09:42:38;;;;;;;17.95;5.70;;;;;;;12.91;100.00;101029.50;5083115;28;20035;-80
2024/02/16 09:45:09;;;;;;;18.80;6.15;;;;;;;12.93;100.00;101029.47;5061623;28;20060;-78
2024/02/16 09:47:35;;;;;;;19.80;6.35;;;;;;;12.96;100.00;101040.09;5062697;28;20067;-77
2024/02/16 09:50:01;;;;;;;18.52;5.60;;;;;;;13.01;100.00;101047.16;5063476;28;20115;-77
2024/02/16 09:52:26;;;;;;;18.52;5.70;;;;;;;13.04;100.00;101051.56;5045010;28;20116;-71
2024/02/16 09:54:52;;;;;;;19.00;6.00;;;;;;;13.09;100.00;101049.78;5064345;28;20115;-72
2024/02/16 09:57:18;;;;;;;17.70;5.57;;;;;;;13.10;100.00;101046.25;5061093;28;20033;-71
2024/02/16 09:59:43;;;;;;;19.63;6.00;;;;;;;13.11;100.00;101050.69;5063966;28;20045;-71
2024/02/16 10:02:09;;;;;;;17.35;5.78;;;;;;;13.13;100.00;101056.84;5061988;28;20474;-75
2024/02/16 10:04:35;;;;;;;20.40;6.22;;;;;;;13.13;100.00;101054.19;5061290;28;20391;-74
2024/02/16 10:07:00;;;;;;;19.02;5.55;;;;;;;13.10;100.00;101062.16;5061733;28;20036;-81
2024/02/16 10:09:30;;;;;;;19.35;6.05;;;;;;;13.02;100.00;101074.59;5061105;28;20035;-73
2024/02/16 10:11:57;;;;;;;20.08;6.15;;;;;;;12.58;100.00;101088.78;5063508;28;20028;-71
2024/02/16 10:14:22;;;;;;;18.92;6.50;;;;;;;12.14;100.00;101090.50;5060937;28;20025;-77
2024/02/16 10:16:58;;;;;;;19.83;6.90;;;;;;;11.88;100.00;101098.34;5064066;28;20068;-72
2024/02/16 10:19:23;;;;;;;20.27;6.80;;;;;;;11.73;100.00;101097.41;5060760;28;20033;-74
2024/02/16 10:21:49;;;;;;;20.45;7.13;;;;;;;11.67;100.00;101108.00;5060628;28;20475;-71
2024/02/16 10:24:14;;;;;;;19.70;6.88;;;;;;;11.66;100.00;101117.72;5063529;28;20539;-72
2024/02/16 10:26:40;;;;;;;19.88;7.20;;;;;;;11.58;100.00;101114.13;5061681;28;20031;-71
2024/02/16 10:29:08;;;;;;;22.02;7.35;;;;;;;11.59;100.00;101120.31;5062737;28;20041;-71
2024/02/16 10:31:34;;;;;;;21.35;7.63;;;;;;;11.58;100.00;101131.78;5062241;28;20029;-81
2024/02/16 10:34:09;;;;;;;21.45;7.78;;;;;;;11.55;100.00;101135.31;5061808;28;20028;-71
2024/02/16 10:36:39;;;;;;;21.10;7.70;;;;;;;11.52;100.00;101152.06;5062368;28;20075;-70
2024/02/16 10:39:06;;;;;;;22.15;7.80;;;;;;;11.50;100.00;101145.88;5060570;28;20028;-71
2024/02/16 10:41:36;;;;;;;21.05;7.93;;;;;;;11.49;100.00;101154.69;5062691;28;20029;-70
2024/02/16 10:44:03;;;;;;;20.60;7.82;;;;;;;11.50;100.00;101155.56;5070863;28;20045;-70
2024/02/16 10:46:29;;;;;;;19.42;7.53;;;;;;;11.50;100.00;101166.16;5087335;28;20036;-74
2024/02/16 10:48:54;;;;;;;20.77;7.90;;;;;;;11.49;100.00;101167.06;5067448;28;20035;-80
2024/02/16 10:51:44;;;;;;;23.50;8.40;;;;;;;11.48;100.00;101171.44;5089320;28;20056;-73
2024/02/16 10:54:10;;;;;;;21.40;7.70;;;;;;;11.48;100.00;101175.84;5086608;28;20051;-80
2024/02/16 10:56:37;;;;;;;20.23;8.07;;;;;;;11.48;100.00;101181.16;5086900;28;20503;-86
2024/02/16 10:59:04;;;;;;;21.73;8.23;;;;;;;11.50;100.00;101180.28;5086304;28;20048;-77
2024/02/16 11:01:37;;;;;;;21.73;8.02;;;;;;;11.50;100.00;101185.59;5069847;28;20035;-87
2024/02/16 11:04:04;;;;;;;22.00;8.85;;;;;;;11.47;100.00;101190.84;5086820;28;20025;-86